Time;durP1;ratioP1;P1;durP2;ratioP2;P2;SDS_P1;SDS_P2;PMS_P1;PMS_P2;Temp;Humidity;BMP_temperature;BMP_pressure;BME280_temperature;BME280_humidity;BME280_pressure;Samples;Min_cycle;Max_cycle;Signal;HPM_P1;HPM_P2
2023/07/18 00:06:03;;;;;;;5.7;3.6;;;;;;;18.16;89.57;;;;;
2023/07/18 00:17:03;;;;;;;5.7;3.6;;;;;;;18.17;88.66;;;;;
2023/07/18 00:28:03;;;;;;;6.3;3.6;;;;;;;18.02;87.72;;;;;
2023/07/18 00:39:03;;;;;;;6.3;3.6;;;;;;;17.8;87.39;;;;;
2023/07/18 00:50:04;;;;;;;6.3;3.6;;;;;;;17.5;87.35;;;;;
2023/07/18 01:00:08;;;;;;;6.5;3.3;;;;;;;17.31;88;;;;;
2023/07/18 01:10:03;;;;;;;6.5;3.3;;;;;;;17.19;88.71;;;;;
2023/07/18 01:21:03;;;;;;;6.5;3.3;;;;;;;17.13;88.75;;;;;
2023/07/18 01:31:03;;;;;;;8.4;4.2;;;;;;;17.13;88.92;;;;;
2023/07/18 01:42:03;;;;;;;8.4;4.2;;;;;;;17.1;90.23;;;;;
2023/07/18 01:52:05;;;;;;;8.4;4.2;;;;;;;17.26;90.15;;;;;
2023/07/18 02:02:06;;;;;;;6.8;3.9;;;;;;;17.27;89.64;;;;;
2023/07/18 02:13:03;;;;;;;6.8;3.9;;;;;;;17.17;89.27;;;;;
2023/07/18 02:23:03;;;;;;;6.8;3.9;;;;;;;17.09;89.94;;;;;
2023/07/18 02:33:07;;;;;;;7.9;4.3;;;;;;;17.07;89.5;;;;;
2023/07/18 02:44:03;;;;;;;7.9;4.3;;;;;;;16.97;89.25;;;;;
2023/07/18 02:54:03;;;;;;;6.9;4.1;;;;;;;16.7;88.93;;;;;
2023/07/18 03:05:03;;;;;;;6.9;4.1;;;;;;;16.58;90.03;;;;;
2023/07/18 03:16:04;;;;;;;6.9;4.1;;;;;;;16.94;91.52;;;;;
2023/07/18 03:27:03;;;;;;;9.2;5.4;;;;;;;17.33;92.15;;;;;
2023/07/18 03:38:03;;;;;;;9.2;5.4;;;;;;;17.66;92.17;;;;;
2023/07/18 03:49:03;;;;;;;9.2;5.4;;;;;;;17.9;91.43;;;;;
2023/07/18 03:59:03;;;;;;;12.8;7.6;;;;;;;17.98;89.14;;;;;
2023/07/18 04:09:03;;;;;;;12.8;7.6;;;;;;;18.1;85.16;;;;;
2023/07/18 04:20:04;;;;;;;12.8;7.6;;;;;;;18.32;82.04;;;;;
2023/07/18 04:30:03;;;;;;;12.8;7;;;;;;;18.4;79.3;;;;;
2023/07/18 04:41:03;;;;;;;12.8;7;;;;;;;18.48;77.88;;;;;
2023/07/18 04:51:03;;;;;;;12.8;7;;;;;;;18.8;78.61;;;;;
2023/07/18 05:01:03;;;;;;;9.1;5.6;;;;;;;19.15;78.71;;;;;
2023/07/18 05:11:03;;;;;;;9.1;5.6;;;;;;;18.95;78.72;;;;;
2023/07/18 05:21:03;;;;;;;9.1;5.6;;;;;;;19.37;78.45;;;;;
2023/07/18 05:32:05;;;;;;;9.2;5.8;;;;;;;19.65;77.71;;;;;
2023/07/18 05:43:03;;;;;;;9.2;5.8;;;;;;;19.89;73.95;;;;;
2023/07/18 05:53:03;;;;;;;9.2;5.8;;;;;;;19.62;71.13;;;;;
2023/07/18 06:04:03;;;;;;;9.5;5.4;;;;;;;19.74;71.79;;;;;
2023/07/18 06:15:03;;;;;;;9.5;5.4;;;;;;;20;69.42;;;;;
2023/07/18 06:26:04;;;;;;;8.2;5.2;;;;;;;20.13;68.47;;;;;
2023/07/18 06:36:03;;;;;;;8.2;5.2;;;;;;;20.07;66.45;;;;;
2023/07/18 06:47:03;;;;;;;8.2;5.2;;;;;;;20.42;66.88;;;;;
2023/07/18 06:57:04;;;;;;;9.1;5.5;;;;;;;20.44;64.54;;;;;
2023/07/18 07:07:03;;;;;;;9.1;5.5;;;;;;;20.96;65.93;;;;;
2023/07/18 07:18:03;;;;;;;9.1;5.5;;;;;;;21.27;62.87;;;;;
2023/07/18 07:29:03;;;;;;;9.2;4.7;;;;;;;21.17;61.16;;;;;
2023/07/18 07:39:03;;;;;;;9.2;4.7;;;;;;;21.4;62.79;;;;;
2023/07/18 07:49:03;;;;;;;9.2;4.7;;;;;;;21.16;62.26;;;;;
2023/07/18 08:00:03;;;;;;;7.4;4.4;;;;;;;21.43;60.01;;;;;
2023/07/18 08:11:03;;;;;;;7.4;4.4;;;;;;;21.78;60.76;;;;;
2023/07/18 08:21:03;;;;;;;7.4;4.4;;;;;;;22.01;59.51;;;;;
2023/07/18 08:32:03;;;;;;;9;3.5;;;;;;;21.93;57.97;;;;;
2023/07/18 08:42:03;;;;;;;9;3.5;;;;;;;22.12;58.31;;;;;
2023/07/18 08:52:04;;;;;;;9;3.5;;;;;;;22.32;58.64;;;;;
2023/07/18 09:02:03;;;;;;;9.7;4.4;;;;;;;22.55;56.7;;;;;
2023/07/18 09:13:03;;;;;;;9.7;4.4;;;;;;;22.66;57.9;;;;;
2023/07/18 09:24:03;;;;;;;7.6;4.6;;;;;;;22.76;56.28;;;;;
2023/07/18 09:34:03;;;;;;;7.6;4.6;;;;;;;22.98;55.57;;;;;
2023/07/18 09:45:03;;;;;;;7.6;4.6;;;;;;;23.19;52.98;;;;;
2023/07/18 09:56:03;;;;;;;8.3;3.7;;;;;;;23.42;51.39;;;;;
2023/07/18 10:06:03;;;;;;;8.3;3.7;;;;;;;23.76;55.54;;;;;
2023/07/18 10:17:05;;;;;;;8.3;3.7;;;;;;;23.91;53.55;;;;;
2023/07/18 10:28:03;;;;;;;7.2;3.7;;;;;;;24.07;50.73;;;;;
2023/07/18 10:38:06;;;;;;;7.2;3.7;;;;;;;24.02;49.99;;;;;
2023/07/18 10:48:03;;;;;;;7.2;3.7;;;;;;;24.34;50.55;;;;;
2023/07/18 10:58:05;;;;;;;6.3;2.7;;;;;;;24.47;45.07;;;;;
2023/07/18 11:09:04;;;;;;;6.3;2.7;;;;;;;24.7;46.6;;;;;
2023/07/18 11:19:03;;;;;;;6.3;2.7;;;;;;;24.9;44.11;;;;;
2023/07/18 11:29:03;;;;;;;5.7;2.6;;;;;;;25.15;44.15;;;;;
2023/07/18 11:40:03;;;;;;;5.7;2.6;;;;;;;25.04;44;;;;;
2023/07/18 11:51:04;;;;;;;5.7;2.6;;;;;;;24.85;43.36;;;;;
2023/07/18 12:02:03;;;;;;;5;2.3;;;;;;;24.95;43.15;;;;;
2023/07/18 12:13:03;;;;;;;5;2.3;;;;;;;25.4;42.75;;;;;
2023/07/18 12:23:03;;;;;;;5;2.3;;;;;;;25.42;40.76;;;;;
2023/07/18 12:33:04;;;;;;;4.1;1.8;;;;;;;25.49;39.53;;;;;
2023/07/18 12:44:03;;;;;;;4.1;1.8;;;;;;;25.18;40.35;;;;;
2023/07/18 12:54:03;;;;;;;5.3;2.1;;;;;;;25.92;38.91;;;;;
2023/07/18 13:04:03;;;;;;;5.3;2.1;;;;;;;25.82;40.09;;;;;
2023/07/18 13:14:03;;;;;;;5.3;2.1;;;;;;;26.06;37.71;;;;;
2023/07/18 13:24:03;;;;;;;4.2;2;;;;;;;26.01;38.08;;;;;
2023/07/18 13:35:04;;;;;;;4.2;2;;;;;;;26.32;37.83;;;;;
2023/07/18 13:45:07;;;;;;;4.2;2;;;;;;;26.91;38.38;;;;;
2023/07/18 13:56:03;;;;;;;6.7;2.5;;;;;;;26.52;40.03;;;;;
2023/07/18 14:07:03;;;;;;;6.7;2.5;;;;;;;26.77;38.19;;;;;
2023/07/18 14:18:03;;;;;;;6.7;2.5;;;;;;;26.62;38.53;;;;;
2023/07/18 14:28:04;;;;;;;5.1;2.3;;;;;;;26.68;38.21;;;;;
2023/07/18 14:39:04;;;;;;;5.1;2.3;;;;;;;27.12;37.84;;;;;
2023/07/18 14:50:04;;;;;;;5.1;2.3;;;;;;;27.44;36.38;;;;;
2023/07/18 15:00:04;;;;;;;4.2;1.9;;;;;;;27.32;37.43;;;;;
2023/07/18 15:11:04;;;;;;;4.2;1.9;;;;;;;28.36;35.48;;;;;
2023/07/18 15:21:04;;;;;;;4.2;1.9;;;;;;;30.97;30.84;;;;;
2023/07/18 15:32:03;;;;;;;5.8;2.5;;;;;;;33.12;28.65;;;;;
2023/07/18 15:42:04;;;;;;;5.8;2.5;;;;;;;33.64;28.75;;;;;
2023/07/18 15:53:03;;;;;;;5.8;2.5;;;;;;;34.57;26.34;;;;;
2023/07/18 16:03:03;;;;;;;4.7;2.5;;;;;;;34.37;26.36;;;;;
2023/07/18 16:13:03;;;;;;;4.7;2.5;;;;;;;35.29;26.15;;;;;
2023/07/18 16:24:04;;;;;;;4.7;2.5;;;;;;;34.1;27.35;;;;;
2023/07/18 16:34:03;;;;;;;5.1;1.7;;;;;;;32.75;28.24;;;;;
2023/07/18 16:44:03;;;;;;;5.1;1.7;;;;;;;30.65;32.32;;;;;
2023/07/18 16:55:03;;;;;;;5;2;;;;;;;32.52;29.37;;;;;
2023/07/18 17:05:03;;;;;;;5;2;;;;;;;31.44;30.5;;;;;
2023/07/18 17:15:05;;;;;;;5;2;;;;;;;29.37;33.74;;;;;
2023/07/18 17:26:03;;;;;;;5.5;1.7;;;;;;;28.15;36.49;;;;;
2023/07/18 17:36:04;;;;;;;5.5;1.7;;;;;;;27.02;38.91;;;;;
2023/07/18 17:46:04;;;;;;;5.5;1.7;;;;;;;26.76;43.29;;;;;
2023/07/18 17:57:03;;;;;;;4.9;2;;;;;;;29.35;38.13;;;;;
2023/07/18 18:07:04;;;;;;;4.9;2;;;;;;;27.65;39.72;;;;;
2023/07/18 18:17:04;;;;;;;4.9;2;;;;;;;26.03;43.73;;;;;
2023/07/18 18:28:03;;;;;;;5;2.4;;;;;;;24.59;46.35;;;;;
2023/07/18 18:38:03;;;;;;;5;2.4;;;;;;;23.35;52.09;;;;;
2023/07/18 18:48:03;;;;;;;5;2.4;;;;;;;22.44;54.85;;;;;
2023/07/18 18:58:03;;;;;;;5.2;2.6;;;;;;;21.67;56.18;;;;;
2023/07/18 19:09:06;;;;;;;5.2;2.6;;;;;;;21;58.3;;;;;
2023/07/18 19:19:05;;;;;;;5.2;2.6;;;;;;;20.47;58.66;;;;;
2023/07/18 19:30:03;;;;;;;5.9;3.5;;;;;;;19.88;59.24;;;;;
2023/07/18 19:40:04;;;;;;;5.9;3.5;;;;;;;19.43;62.06;;;;;
2023/07/18 19:51:03;;;;;;;5.9;3.5;;;;;;;19.07;63.63;;;;;
2023/07/18 20:01:04;;;;;;;7;3.6;;;;;;;18.83;62.21;;;;;
2023/07/18 20:12:03;;;;;;;7;3.6;;;;;;;18.67;61.94;;;;;
2023/07/18 20:23:03;;;;;;;7;3.6;;;;;;;18.41;62.48;;;;;
2023/07/18 20:33:03;;;;;;;6.1;3.6;;;;;;;18.22;64.08;;;;;
2023/07/18 20:43:04;;;;;;;6.1;3.6;;;;;;;18.04;65.2;;;;;
2023/07/18 20:53:03;;;;;;;6.1;3.6;;;;;;;17.87;66.37;;;;;
2023/07/18 21:03:04;;;;;;;6.9;3.5;;;;;;;17.72;67.52;;;;;
2023/07/18 21:13:03;;;;;;;6.9;3.5;;;;;;;17.6;68.71;;;;;
2023/07/18 21:24:03;;;;;;;6.9;3.5;;;;;;;17.51;70.19;;;;;
2023/07/18 21:35:04;;;;;;;7.6;4.5;;;;;;;17.47;70.57;;;;;
2023/07/18 21:45:04;;;;;;;7.6;4.5;;;;;;;17.35;71.6;;;;;
2023/07/18 21:56:03;;;;;;;7.7;4.1;;;;;;;17.06;72.1;;;;;
2023/07/18 22:07:04;;;;;;;7.7;4.1;;;;;;;16.74;72.49;;;;;
2023/07/18 22:17:04;;;;;;;7.7;4.1;;;;;;;16.43;76.16;;;;;
2023/07/18 22:28:03;;;;;;;9;4.8;;;;;;;16.17;75.64;;;;;
2023/07/18 22:38:04;;;;;;;9;4.8;;;;;;;15.95;78.12;;;;;
2023/07/18 22:48:04;;;;;;;9;4.8;;;;;;;16.12;75.51;;;;;
2023/07/18 22:59:03;;;;;;;8.7;4.4;;;;;;;16.25;74.21;;;;;
2023/07/18 23:10:03;;;;;;;8.7;4.4;;;;;;;16.17;76.4;;;;;
2023/07/18 23:20:05;;;;;;;8.7;4.4;;;;;;;16.21;74.67;;;;;
2023/07/18 23:30:03;;;;;;;6.4;3.8;;;;;;;16.3;73.09;;;;;
2023/07/18 23:41:03;;;;;;;6.4;3.8;;;;;;;16.41;71.88;;;;;
2023/07/18 23:51:03;;;;;;;6.4;3.8;;;;;;;16.29;72.6;;;;;
